createdAt,value
2019-04-04T00:00:01.425Z,5.50
2019-04-04T00:02:31.100Z,5.30
2019-04-04T00:04:59.486Z,5.10
2019-04-04T00:07:29.175Z,4.67
2019-04-04T00:09:58.115Z,4.97
2019-04-04T00:12:26.493Z,4.23
2019-04-04T00:14:54.880Z,4.67
2019-04-04T00:17:23.866Z,4.70
2019-04-04T00:19:52.363Z,4.67
2019-04-04T00:22:20.741Z,4.30
2019-04-04T00:24:49.131Z,4.80
2019-04-04T00:27:17.505Z,4.33
2019-04-04T00:29:46.022Z,4.23
2019-04-04T00:32:16.065Z,4.23
2019-04-04T00:34:44.444Z,4.03
2019-04-04T00:37:12.821Z,4.13
2019-04-04T00:39:41.204Z,3.43
2019-04-04T00:42:09.597Z,3.63
2019-04-04T00:44:38.006Z,3.40
2019-04-04T00:47:06.358Z,3.90
2019-04-04T00:49:35.540Z,3.50
2019-04-04T00:52:04.683Z,3.57
2019-04-04T00:54:33.058Z,3.70
2019-04-04T00:57:01.435Z,3.60
2019-04-04T00:59:29.816Z,3.20
2019-04-04T01:01:58.195Z,3.13
2019-04-04T01:04:26.576Z,3.23
2019-04-04T01:06:54.956Z,3.50
2019-04-04T01:09:23.333Z,2.90
2019-04-04T01:11:51.869Z,3.40
2019-04-04T01:14:20.270Z,3.60
2019-04-04T01:16:48.659Z,3.10
2019-04-04T01:19:19.721Z,3.13
2019-04-04T01:21:48.109Z,3.37
2019-04-04T01:24:16.500Z,3.63
2019-04-04T01:26:44.876Z,3.60
2019-04-04T01:29:13.272Z,3.40
2019-04-04T01:31:41.630Z,3.53
2019-04-04T01:34:10.004Z,3.60
2019-04-04T01:36:38.396Z,3.80
2019-04-04T01:39:07.232Z,4.00
2019-04-04T01:41:36.410Z,4.00
2019-04-04T01:44:05.633Z,4.03
2019-04-04T01:46:34.079Z,4.23
2019-04-04T01:49:02.466Z,3.93
2019-04-04T01:51:30.849Z,4.17
2019-04-04T01:54:01.034Z,3.80
2019-04-04T01:56:29.332Z,4.20
2019-04-04T01:58:57.716Z,4.40
2019-04-04T02:01:26.131Z,4.70
2019-04-04T02:03:54.535Z,5.13
2019-04-04T02:06:22.916Z,5.30
2019-04-04T02:08:51.298Z,5.20
2019-04-04T02:11:19.674Z,5.27
2019-04-04T02:13:48.072Z,4.77
2019-04-04T02:16:16.904Z,4.80
2019-04-04T02:18:45.903Z,4.60
2019-04-04T02:21:14.285Z,5.50
2019-04-04T02:23:42.679Z,6.00
2019-04-04T02:26:11.057Z,6.50
2019-04-04T02:28:40.022Z,7.43
2019-04-04T02:31:09.368Z,7.50
2019-04-04T02:33:37.753Z,7.30
2019-04-04T02:36:06.139Z,7.43
2019-04-04T02:38:34.518Z,7.87
2019-04-04T02:41:02.912Z,8.13
2019-04-04T02:43:31.391Z,9.03
2019-04-04T02:45:59.769Z,9.93
2019-04-04T02:48:28.178Z,10.70
2019-04-04T02:50:56.714Z,10.73
2019-04-04T02:53:25.041Z,10.27
2019-04-04T02:55:53.435Z,10.30
2019-04-04T02:58:21.894Z,10.37
2019-04-04T03:00:50.283Z,10.53
2019-04-04T03:03:18.671Z,10.10
2019-04-04T03:05:50.954Z,11.10
2019-04-04T03:08:17.199Z,11.10
2019-04-04T03:10:48.226Z,11.47
2019-04-04T03:13:15.715Z,10.63
2019-04-04T03:15:47.167Z,11.23
2019-04-04T03:18:14.240Z,10.50
2019-04-04T03:20:42.639Z,11.93
2019-04-04T03:23:11.143Z,11.33
2019-04-04T03:25:39.527Z,11.43
2019-04-04T03:28:08.257Z,12.50
2019-04-04T03:30:36.661Z,12.53
2019-04-04T03:33:05.038Z,11.33
2019-04-04T03:35:33.463Z,12.57
2019-04-04T03:38:01.824Z,12.10
2019-04-04T03:40:30.208Z,12.93
2019-04-04T03:42:58.632Z,13.33
2019-04-04T03:45:27.624Z,13.30
2019-04-04T03:47:56.118Z,14.03
2019-04-04T03:50:29.047Z,13.87
2019-04-04T03:52:54.654Z,13.83
2019-04-04T03:55:23.057Z,14.27
2019-04-04T03:57:51.868Z,13.23
2019-04-04T04:00:29.752Z,14.70
2019-04-04T04:02:58.477Z,14.43
2019-04-04T04:05:34.554Z,14.27
2019-04-04T04:08:01.330Z,15.53
2019-04-04T04:10:33.512Z,15.10
2019-04-04T04:13:00.871Z,15.47
2019-04-04T04:15:30.492Z,14.93
2019-04-04T04:17:59.047Z,15.73
2019-04-04T04:20:27.594Z,15.17
2019-04-04T04:22:55.992Z,14.73
2019-04-04T04:25:24.393Z,15.60
2019-04-04T04:27:52.798Z,16.33
2019-04-04T04:30:21.212Z,17.40
2019-04-04T04:32:55.800Z,18.17
2019-04-04T04:35:22.678Z,17.70
2019-04-04T04:37:53.422Z,18.87
2019-04-04T04:40:21.214Z,19.30
2019-04-04T04:42:49.676Z,18.60
2019-04-04T04:45:18.093Z,19.03
2019-04-04T04:47:46.486Z,18.73
2019-04-04T04:50:14.942Z,18.53
2019-04-04T04:52:46.326Z,18.87
2019-04-04T04:55:13.514Z,17.87
2019-04-04T04:57:41.923Z,20.33
2019-04-04T05:00:10.720Z,19.07
2019-04-04T05:02:39.066Z,19.57
2019-04-04T05:05:07.535Z,19.50
2019-04-04T05:07:38.458Z,20.00
2019-04-04T05:10:07.718Z,20.60
2019-04-04T05:12:36.122Z,23.95
2019-04-04T05:15:06.989Z,20.73
2019-04-04T05:17:35.389Z,21.23
2019-04-04T05:20:07.685Z,21.53
2019-04-04T05:22:36.091Z,21.00
2019-04-04T05:25:08.240Z,21.97
2019-04-04T05:27:37.349Z,19.93
2019-04-04T05:30:08.333Z,21.47
2019-04-04T05:32:36.709Z,21.93
2019-04-04T05:35:06.812Z,20.90
2019-04-04T05:37:37.974Z,20.70
2019-04-04T05:40:06.853Z,21.60
2019-04-04T05:42:35.295Z,20.67
2019-04-04T05:45:06.003Z,21.53
2019-04-04T05:47:34.397Z,20.77
2019-04-04T05:50:02.985Z,21.40
2019-04-04T05:52:32.693Z,21.17
2019-04-04T05:55:01.442Z,21.50
2019-04-04T05:57:29.853Z,20.90
2019-04-04T05:59:58.245Z,20.07
2019-04-04T06:02:26.620Z,20.33
2019-04-04T06:04:55.505Z,20.07
2019-04-04T06:07:24.005Z,19.67
2019-04-04T06:09:52.385Z,19.27
2019-04-04T06:12:20.795Z,19.30
2019-04-04T06:14:49.180Z,18.83
2019-04-04T06:17:17.566Z,18.30
2019-04-04T06:19:45.953Z,16.77
2019-04-04T06:22:14.342Z,17.70
2019-04-04T06:24:42.729Z,18.17
2019-04-04T06:27:11.119Z,16.63
2019-04-04T06:29:39.501Z,16.63
2019-04-04T06:32:07.920Z,16.23
2019-04-04T06:34:36.306Z,16.97
2019-04-04T06:37:04.698Z,16.40
2019-04-04T06:39:33.085Z,16.27
2019-04-04T06:42:03.260Z,15.63
2019-04-04T06:44:31.615Z,16.40
2019-04-04T06:47:02.021Z,21.07
2019-04-04T06:49:30.132Z,18.13
2019-04-04T06:51:58.584Z,16.40
2019-04-04T06:54:26.989Z,15.20
2019-04-04T06:56:55.360Z,14.90
2019-04-04T06:59:23.811Z,14.47
2019-04-04T07:01:52.648Z,14.80
2019-04-04T07:04:21.041Z,14.97
2019-04-04T07:06:49.449Z,14.80
2019-04-04T07:09:19.015Z,14.50
2019-04-04T07:11:47.706Z,14.53
2019-04-04T07:14:16.113Z,17.13
2019-04-04T07:16:44.523Z,14.80
2019-04-04T07:19:15.093Z,13.73
2019-04-04T07:21:43.574Z,16.07
2019-04-04T07:24:11.961Z,13.17
2019-04-04T07:26:40.350Z,13.20
2019-04-04T07:29:08.738Z,13.47
2019-04-04T07:31:38.377Z,14.20
2019-04-04T07:34:07.026Z,13.57
2019-04-04T07:36:35.418Z,13.50
2019-04-04T07:39:04.967Z,12.80
2019-04-04T07:41:33.351Z,12.10
2019-04-04T07:44:01.749Z,18.23
2019-04-04T07:46:30.127Z,15.03
2019-04-04T07:48:58.523Z,17.67
2019-04-04T07:51:28.122Z,16.40
2019-04-04T07:53:57.043Z,11.37
2019-04-04T07:56:25.424Z,11.73
2019-04-04T07:58:53.957Z,15.43
2019-04-04T08:01:22.333Z,11.77
2019-04-04T08:03:50.722Z,11.87
2019-04-04T08:06:19.114Z,23.43
2019-04-04T08:08:47.538Z,42.93
2019-04-04T08:11:15.932Z,16.83
2019-04-04T08:13:44.355Z,10.90
2019-04-04T08:16:12.774Z,10.67
2019-04-04T08:18:41.182Z,10.93
2019-04-04T08:21:09.569Z,10.03
2019-04-04T08:23:37.946Z,9.73
2019-04-04T08:26:06.426Z,9.60
2019-04-04T08:28:34.806Z,10.20
2019-04-04T08:31:03.285Z,9.53
2019-04-04T08:33:31.681Z,9.40
2019-04-04T08:36:05.845Z,9.03
2019-04-04T08:38:30.249Z,8.90
2019-04-04T08:40:58.678Z,9.13
2019-04-04T08:43:27.104Z,9.30
2019-04-04T08:45:55.531Z,9.60
2019-04-04T08:48:23.959Z,19.73
2019-04-04T08:50:52.329Z,9.47
2019-04-04T08:53:20.787Z,9.77
2019-04-04T08:55:49.184Z,10.07
2019-04-04T08:58:17.605Z,15.37
2019-04-04T09:00:46.051Z,9.40
2019-04-04T09:03:14.523Z,10.00
2019-04-04T09:05:42.871Z,9.53
2019-04-04T09:08:11.285Z,9.30
2019-04-04T09:10:39.697Z,9.50
2019-04-04T09:13:08.091Z,11.67
2019-04-04T09:15:36.559Z,12.13
2019-04-04T09:18:05.082Z,8.90
2019-04-04T09:20:33.490Z,7.93
2019-04-04T09:23:01.875Z,7.23
2019-04-04T09:25:30.276Z,7.23
2019-04-04T09:27:58.666Z,7.03
2019-04-04T09:30:27.185Z,7.47
2019-04-04T09:32:55.580Z,6.87
2019-04-04T09:35:23.977Z,6.60
2019-04-04T09:37:52.375Z,8.83
2019-04-04T09:40:20.793Z,8.40
2019-04-04T09:42:49.186Z,6.20
2019-04-04T09:45:18.052Z,6.17
2019-04-04T09:47:46.435Z,5.20
2019-04-04T09:50:15.280Z,5.53
2019-04-04T09:52:43.710Z,4.20
2019-04-04T09:55:12.246Z,4.80
2019-04-04T09:57:40.663Z,4.03
2019-04-04T10:00:14.841Z,4.80
2019-04-04T10:02:43.331Z,13.17
2019-04-04T10:05:12.179Z,3.90
2019-04-04T10:07:40.593Z,4.20
2019-04-04T10:10:09.720Z,4.80
2019-04-04T10:12:38.173Z,3.87
2019-04-04T10:15:08.445Z,4.40
2019-04-04T10:17:36.919Z,4.17
2019-04-04T10:20:07.044Z,4.43
2019-04-04T10:22:35.450Z,4.17
2019-04-04T10:25:04.605Z,18.03
2019-04-04T10:27:32.995Z,4.43
2019-04-04T10:30:01.379Z,4.10
2019-04-04T10:32:29.798Z,5.60
2019-04-04T10:34:58.195Z,4.40
2019-04-04T10:37:26.671Z,4.10
2019-04-04T10:39:55.056Z,4.23
2019-04-04T10:42:23.473Z,4.10
2019-04-04T10:44:51.892Z,4.40
2019-04-04T10:47:20.544Z,4.40
2019-04-04T10:49:48.991Z,4.17
2019-04-04T10:52:17.317Z,4.20
2019-04-04T10:54:46.704Z,4.13
2019-04-04T10:57:15.094Z,3.60
2019-04-04T10:59:43.488Z,3.80
2019-04-04T11:02:11.946Z,3.90
2019-04-04T11:04:40.325Z,4.10
2019-04-04T11:07:08.723Z,4.30
2019-04-04T11:09:42.255Z,3.60
2019-04-04T11:12:07.267Z,4.10
2019-04-04T11:14:35.658Z,4.13
2019-04-04T11:17:04.112Z,3.50
2019-04-04T11:19:32.516Z,3.90
2019-04-04T11:22:00.908Z,4.10
2019-04-04T11:24:29.297Z,4.23
2019-04-04T11:26:57.681Z,4.27
2019-04-04T11:29:26.100Z,4.57
2019-04-04T11:31:54.486Z,3.83
2019-04-04T11:34:22.974Z,4.10
2019-04-04T11:36:51.363Z,3.90
2019-04-04T11:39:19.752Z,4.47
2019-04-04T11:41:48.219Z,4.53
2019-04-04T11:44:16.632Z,4.33
2019-04-04T11:46:45.223Z,3.90
2019-04-04T11:49:13.729Z,3.90
2019-04-04T11:51:42.134Z,4.23
2019-04-04T11:54:10.668Z,4.40
2019-04-04T11:56:39.069Z,3.90
2019-04-04T11:59:08.302Z,4.23
2019-04-04T12:01:40.993Z,4.20
2019-04-04T12:04:09.449Z,4.43
2019-04-04T12:06:37.832Z,4.15
2019-04-04T12:09:07.727Z,3.70
2019-04-04T12:11:36.248Z,3.67
2019-04-04T12:14:05.383Z,4.97
2019-04-04T12:16:34.683Z,5.40
2019-04-04T12:19:03.106Z,7.23
2019-04-04T12:21:31.509Z,5.90
2019-04-04T12:23:59.969Z,5.90
2019-04-04T12:26:28.365Z,6.60
2019-04-04T12:28:56.997Z,6.57
2019-04-04T12:31:25.386Z,6.73
2019-04-04T12:33:53.879Z,6.60
2019-04-04T12:36:24.913Z,6.57
2019-04-04T12:38:52.389Z,6.60
2019-04-04T12:41:20.787Z,6.50
2019-04-04T12:43:49.253Z,5.93
2019-04-04T12:46:17.640Z,6.40
2019-04-04T12:48:46.050Z,6.20
2019-04-04T12:51:14.436Z,6.07
2019-04-04T12:53:42.835Z,6.17
2019-04-04T12:56:11.215Z,6.20
2019-04-04T12:58:39.619Z,6.10
2019-04-04T13:01:07.999Z,6.40
2019-04-04T13:03:36.428Z,6.43
2019-04-04T13:06:04.937Z,6.50
2019-04-04T13:08:33.333Z,6.10
2019-04-04T13:11:01.786Z,6.17
2019-04-04T13:13:30.184Z,6.20
2019-04-04T13:15:58.592Z,6.45
2019-04-04T13:18:26.979Z,5.97
2019-04-04T13:20:55.442Z,6.43
2019-04-04T13:23:23.845Z,5.80
2019-04-04T13:25:52.240Z,5.67
2019-04-04T13:28:20.732Z,5.70
2019-04-04T13:30:49.189Z,5.83
2019-04-04T13:33:17.636Z,7.10
2019-04-04T13:35:46.026Z,6.37
2019-04-04T13:38:14.397Z,6.40
2019-04-04T13:40:45.734Z,6.47
2019-04-04T13:43:12.941Z,6.03
2019-04-04T13:45:41.328Z,5.97
2019-04-04T13:48:10.684Z,5.90
2019-04-04T13:50:39.876Z,5.83
2019-04-04T13:53:08.256Z,6.17
2019-04-04T13:55:39.211Z,6.30
2019-04-04T13:58:11.097Z,5.93
2019-04-04T14:00:40.971Z,5.40
2019-04-04T14:03:10.702Z,5.10
2019-04-04T14:05:39.903Z,5.37
2019-04-04T14:08:10.007Z,5.23
2019-04-04T14:10:39.415Z,5.40
2019-04-04T14:13:07.794Z,5.90
2019-04-04T14:15:36.270Z,6.30
2019-04-04T14:18:08.450Z,5.93
2019-04-04T14:20:37.080Z,6.57
2019-04-04T14:23:07.515Z,6.47
2019-04-04T14:25:39.697Z,6.13
2019-04-04T14:28:08.642Z,6.43
2019-04-04T14:30:37.043Z,6.63
2019-04-04T14:33:05.438Z,7.20
2019-04-04T14:35:34.900Z,6.70
2019-04-04T14:38:06.875Z,6.17
2019-04-04T14:40:35.593Z,8.07
2019-04-04T14:43:04.277Z,7.70
2019-04-04T14:45:35.868Z,7.87
2019-04-04T14:48:10.965Z,7.67
2019-04-04T14:50:40.804Z,7.40
2019-04-04T14:53:12.511Z,7.93
2019-04-04T14:55:41.020Z,7.73
2019-04-04T14:58:09.419Z,9.53
2019-04-04T15:00:37.874Z,8.00
2019-04-04T15:03:06.275Z,8.43
2019-04-04T15:05:39.867Z,9.07
2019-04-04T15:08:13.439Z,8.63
2019-04-04T15:10:41.976Z,8.47
2019-04-04T15:13:10.385Z,8.90
2019-04-04T15:15:41.836Z,8.20
2019-04-04T15:18:10.219Z,9.10
2019-04-04T15:20:38.625Z,9.03
2019-04-04T15:23:07.019Z,9.50
2019-04-04T15:25:35.413Z,9.90
2019-04-04T15:28:03.881Z,10.37
2019-04-04T15:30:32.291Z,12.40
2019-04-04T15:33:02.668Z,12.13
2019-04-04T15:35:30.849Z,12.07
2019-04-04T15:37:59.242Z,14.47
2019-04-04T15:40:27.667Z,14.57
2019-04-04T15:42:56.060Z,18.23
2019-04-04T15:45:24.521Z,18.27
2019-04-04T15:47:53.009Z,20.10
2019-04-04T15:50:21.475Z,19.23
2019-04-04T15:52:49.968Z,19.23
2019-04-04T15:55:18.360Z,19.63
2019-04-04T15:57:46.840Z,19.23
2019-04-04T16:00:15.606Z,19.67
2019-04-04T16:02:44.001Z,18.90
2019-04-04T16:05:12.664Z,18.27
2019-04-04T16:07:41.067Z,17.60
2019-04-04T16:10:09.793Z,18.20
2019-04-04T16:12:38.228Z,17.27
2019-04-04T16:15:07.526Z,17.83
2019-04-04T16:17:35.977Z,17.20
2019-04-04T16:20:07.644Z,16.73
2019-04-04T16:22:36.046Z,16.80
2019-04-04T16:25:06.357Z,18.65
2019-04-04T16:27:34.767Z,17.70
2019-04-04T16:30:03.714Z,17.10
2019-04-04T16:32:32.130Z,16.70
2019-04-04T16:35:00.524Z,16.57
2019-04-04T16:37:28.919Z,16.90
2019-04-04T16:40:08.185Z,15.80
2019-04-04T16:42:27.496Z,16.43
2019-04-04T16:44:55.957Z,15.87
2019-04-04T16:47:24.357Z,16.27
2019-04-04T16:49:52.802Z,15.60
2019-04-04T16:52:21.227Z,15.83
2019-04-04T16:54:49.628Z,16.03
2019-04-04T16:57:18.029Z,15.40
2019-04-04T16:59:46.421Z,15.23
2019-04-04T17:02:14.831Z,15.90
2019-04-04T17:04:43.217Z,14.53
2019-04-04T17:07:11.612Z,14.03
2019-04-04T17:09:40.032Z,14.23
2019-04-04T17:12:14.785Z,14.80
2019-04-04T17:14:38.544Z,14.53
2019-04-04T17:17:06.938Z,13.80
2019-04-04T17:19:35.485Z,13.63
2019-04-04T17:22:03.941Z,13.33
2019-04-04T17:24:32.325Z,13.40
2019-04-04T17:27:00.741Z,13.03
2019-04-04T17:29:29.135Z,13.50
2019-04-04T17:31:57.605Z,13.40
2019-04-04T17:34:26.325Z,13.43
2019-04-04T17:36:55.164Z,14.00
2019-04-04T17:39:23.536Z,13.37
2019-04-04T17:41:52.072Z,13.13
2019-04-04T17:44:20.564Z,12.87
2019-04-04T17:46:49.321Z,12.30
2019-04-04T17:49:17.996Z,12.10
2019-04-04T17:51:46.895Z,12.03
2019-04-04T17:54:15.404Z,12.20
2019-04-04T17:56:44.319Z,11.27
2019-04-04T17:59:12.730Z,11.60
2019-04-04T18:01:41.125Z,11.30
2019-04-04T18:04:09.516Z,11.20
2019-04-04T18:06:40.564Z,11.43
2019-04-04T18:09:09.272Z,11.67
2019-04-04T18:11:37.733Z,12.13
2019-04-04T18:14:06.196Z,12.57
2019-04-04T18:16:34.641Z,12.37
2019-04-04T18:19:04.188Z,11.73
2019-04-04T18:21:32.649Z,11.63
2019-04-04T18:24:01.049Z,12.00
2019-04-04T18:26:29.436Z,11.93
2019-04-04T18:28:57.853Z,13.53
2019-04-04T18:31:26.243Z,12.13
2019-04-04T18:33:54.986Z,12.40
2019-04-04T18:36:23.407Z,12.87
2019-04-04T18:38:51.822Z,14.10
2019-04-04T18:41:20.205Z,13.43
2019-04-04T18:43:48.642Z,13.73
2019-04-04T18:46:17.102Z,14.07
2019-04-04T18:48:45.535Z,14.80
2019-04-04T18:51:14.116Z,14.47
2019-04-04T18:53:42.509Z,14.03
2019-04-04T18:56:10.895Z,14.60
2019-04-04T18:58:39.297Z,14.47
2019-04-04T19:01:07.739Z,14.63
2019-04-04T19:03:36.135Z,14.30
2019-04-04T19:06:04.615Z,15.53
2019-04-04T19:08:33.029Z,15.10
2019-04-04T19:11:01.483Z,15.00
2019-04-04T19:13:38.496Z,15.77
2019-04-04T19:16:00.068Z,15.43
2019-04-04T19:18:28.558Z,16.10
2019-04-04T19:20:57.024Z,15.90
2019-04-04T19:23:25.555Z,16.17
2019-04-04T19:25:54.150Z,17.50
2019-04-04T19:28:22.683Z,16.13
2019-04-04T19:30:51.066Z,16.27
2019-04-04T19:33:19.551Z,15.73
2019-04-04T19:35:47.946Z,15.63
2019-04-04T19:38:16.336Z,15.70
2019-04-04T19:40:44.747Z,15.87
2019-04-04T19:43:18.271Z,15.40
2019-04-04T19:45:43.277Z,16.00
2019-04-04T19:48:11.738Z,16.27
2019-04-04T19:50:40.149Z,15.93
2019-04-04T19:53:08.605Z,15.93
2019-04-04T19:55:37.033Z,15.23
2019-04-04T19:58:05.411Z,15.40
2019-04-04T20:00:33.979Z,15.00
2019-04-04T20:03:02.369Z,14.90
2019-04-04T20:05:30.769Z,14.27
2019-04-04T20:07:59.398Z,14.60
2019-04-04T20:10:27.802Z,14.47
2019-04-04T20:12:56.190Z,14.00
2019-04-04T20:15:24.580Z,14.90
2019-04-04T20:17:53.006Z,13.13
2019-04-04T20:20:21.876Z,13.67
2019-04-04T20:22:50.264Z,13.80
2019-04-04T20:25:18.748Z,12.80
2019-04-04T20:27:54.677Z,13.03
2019-04-04T20:30:19.255Z,12.67
2019-04-04T20:32:47.668Z,12.60
2019-04-04T20:35:16.064Z,12.23
2019-04-04T20:37:44.486Z,12.60
2019-04-04T20:40:13.000Z,12.37
2019-04-04T20:42:41.411Z,12.43
2019-04-04T20:45:09.894Z,11.40
2019-04-04T20:47:38.396Z,12.00
2019-04-04T20:50:07.126Z,11.70
2019-04-04T20:52:35.528Z,11.47
2019-04-04T20:55:04.845Z,11.80
2019-04-04T20:57:33.232Z,11.43
2019-04-04T21:00:01.625Z,11.90
2019-04-04T21:02:30.031Z,11.90
2019-04-04T21:04:58.420Z,11.90
2019-04-04T21:07:27.799Z,12.17
2019-04-04T21:09:56.190Z,11.63
2019-04-04T21:12:24.606Z,11.33
2019-04-04T21:14:52.997Z,11.80
2019-04-04T21:17:21.389Z,12.30
2019-04-04T21:19:49.781Z,12.20
2019-04-04T21:22:27.339Z,11.83
2019-04-04T21:24:48.309Z,12.33
2019-04-04T21:27:18.766Z,11.93
2019-04-04T21:29:46.880Z,12.03
2019-04-04T21:32:15.281Z,12.53
2019-04-04T21:34:43.659Z,11.90
2019-04-04T21:37:12.074Z,12.30
2019-04-04T21:39:41.357Z,12.57
2019-04-04T21:42:09.761Z,12.17
2019-04-04T21:44:38.180Z,12.43
2019-04-04T21:47:06.535Z,12.33
2019-04-04T21:49:34.925Z,12.77
2019-04-04T21:52:03.332Z,12.33
2019-04-04T21:54:31.716Z,12.07
2019-04-04T21:57:00.140Z,12.97
2019-04-04T21:59:28.534Z,12.77
2019-04-04T22:01:57.042Z,13.17
2019-04-04T22:04:25.432Z,13.53
2019-04-04T22:06:53.844Z,14.33
2019-04-04T22:09:22.305Z,13.47
2019-04-04T22:11:50.765Z,14.33
2019-04-04T22:14:21.904Z,15.17
2019-04-04T22:16:49.286Z,14.23
2019-04-04T22:19:17.671Z,14.70
2019-04-04T22:21:46.054Z,14.67
2019-04-04T22:24:14.448Z,14.67
2019-04-04T22:26:42.858Z,14.00
2019-04-04T22:29:11.272Z,14.40
2019-04-04T22:31:39.669Z,14.03
2019-04-04T22:34:08.063Z,14.70
2019-04-04T22:36:36.475Z,13.83
2019-04-04T22:39:07.418Z,14.30
2019-04-04T22:41:35.806Z,14.53
2019-04-04T22:44:04.287Z,14.83
2019-04-04T22:46:32.680Z,14.87
2019-04-04T22:49:01.088Z,14.63
2019-04-04T22:51:29.499Z,15.07
2019-04-04T22:53:57.923Z,13.83
2019-04-04T22:56:26.333Z,14.60
2019-04-04T22:58:54.716Z,14.80
2019-04-04T23:01:23.105Z,14.93
2019-04-04T23:03:51.497Z,14.27
2019-04-04T23:06:19.959Z,15.30
2019-04-04T23:08:48.354Z,14.57
2019-04-04T23:11:16.745Z,15.03
2019-04-04T23:13:45.177Z,15.60
2019-04-04T23:16:13.631Z,14.77
2019-04-04T23:18:42.032Z,15.00
2019-04-04T23:21:10.421Z,14.90
2019-04-04T23:23:38.813Z,14.57
2019-04-04T23:26:07.197Z,15.43
2019-04-04T23:28:35.587Z,15.47
2019-04-04T23:31:03.977Z,15.60
2019-04-04T23:33:32.386Z,15.40
2019-04-04T23:36:00.792Z,15.47
2019-04-04T23:38:29.185Z,16.07
2019-04-04T23:40:57.579Z,15.10
2019-04-04T23:43:25.964Z,15.77
2019-04-04T23:45:54.351Z,16.93
2019-04-04T23:48:22.747Z,16.80
2019-04-04T23:50:51.135Z,16.17
2019-04-04T23:53:19.539Z,16.67
2019-04-04T23:55:47.939Z,16.27
2019-04-04T23:58:16.328Z,16.47
